Terminal Aerodrome Forecast
Issued by NWS New Orleans/Baton Rouge, LA

Home | Current Version | Previous Version | Text Only | Print | Product List | Glossary On
Versions: 1 2 3 4 5 6 7 8 9 10 11 12 13 14 15 16 17 18 19 20 21 22 23 24 25
000
FTUS44 KLIX 030500
TAFNEW
TAF
KNEW 030528Z 0306/0406 34018KT P6SM -RA FEW008 BKN045 OVC090
     FM030800 VRB03KT P6SM OVC090
     FM031400 03005KT P6SM SCT040 BKN110
      TEMPO 0318/0322 35025G35KT 1SM +TSRA BKN035CB
     FM032200 13005KT P6SM SCT050 BKN150
     FM040100 17005KT P6SM SCT150=

USA.gov is the U.S. government's official web portal to all federal, state and local government web resources and services.